sensor_id;sensor_type;location;lat;lon;timestamp;P1;durP1;ratioP1;P2;durP2;ratioP2
45905;SDS011;31619;49.008;12.106;2022-07-26T00:00:50;7.47;;;6.88;;
45905;SDS011;31619;49.008;12.106;2022-07-26T00:03:16;6.95;;;5.88;;
45905;SDS011;31619;49.008;12.106;2022-07-26T00:05:41;7.72;;;7.03;;
45905;SDS011;31619;49.008;12.106;2022-07-26T00:08:07;7.45;;;6.85;;
45905;SDS011;31619;49.008;12.106;2022-07-26T00:10:44;9.82;;;6.45;;
45905;SDS011;31619;49.008;12.106;2022-07-26T00:13:12;8.65;;;7.28;;
45905;SDS011;31619;49.008;12.106;2022-07-26T00:15:40;12.02;;;7.25;;
45905;SDS011;31619;49.008;12.106;2022-07-26T00:18:06;7.85;;;7.13;;
45905;SDS011;31619;49.008;12.106;2022-07-26T00:20:32;5.75;;;5.15;;
45905;SDS011;31619;49.008;12.106;2022-07-26T00:22:57;5.57;;;5.07;;
45905;SDS011;31619;49.008;12.106;2022-07-26T00:25:23;9.57;;;5.70;;
45905;SDS011;31619;49.008;12.106;2022-07-26T00:27:48;13.50;;;7.15;;
45905;SDS011;31619;49.008;12.106;2022-07-26T00:30:14;10.43;;;7.05;;
45905;SDS011;31619;49.008;12.106;2022-07-26T00:32:40;7.13;;;6.05;;
45905;SDS011;31619;49.008;12.106;2022-07-26T00:35:06;6.80;;;5.97;;
45905;SDS011;31619;49.008;12.106;2022-07-26T00:37:32;7.60;;;6.90;;
45905;SDS011;31619;49.008;12.106;2022-07-26T00:39:57;7.32;;;6.57;;
45905;SDS011;31619;49.008;12.106;2022-07-26T00:42:23;5.68;;;5.13;;
45905;SDS011;31619;49.008;12.106;2022-07-26T00:44:49;7.35;;;5.97;;
45905;SDS011;31619;49.008;12.106;2022-07-26T00:47:14;5.55;;;5.05;;
45905;SDS011;31619;49.008;12.106;2022-07-26T00:49:41;5.65;;;5.05;;
45905;SDS011;31619;49.008;12.106;2022-07-26T00:52:07;6.40;;;5.80;;
45905;SDS011;31619;49.008;12.106;2022-07-26T00:54:33;5.85;;;5.35;;
45905;SDS011;31619;49.008;12.106;2022-07-26T00:57:01;7.28;;;6.03;;
45905;SDS011;31619;49.008;12.106;2022-07-26T00:59:27;6.50;;;6.00;;
45905;SDS011;31619;49.008;12.106;2022-07-26T01:01:53;6.47;;;5.95;;
45905;SDS011;31619;49.008;12.106;2022-07-26T01:04:19;7.90;;;6.57;;
45905;SDS011;31619;49.008;12.106;2022-07-26T01:06:45;6.05;;;5.55;;
45905;SDS011;31619;49.008;12.106;2022-07-26T01:09:13;6.03;;;5.53;;
45905;SDS011;31619;49.008;12.106;2022-07-26T01:11:40;9.65;;;5.70;;
45905;SDS011;31619;49.008;12.106;2022-07-26T01:14:07;5.55;;;5.10;;
45905;SDS011;31619;49.008;12.106;2022-07-26T01:16:33;6.20;;;5.60;;
45905;SDS011;31619;49.008;12.106;2022-07-26T01:18:58;5.28;;;4.88;;
45905;SDS011;31619;49.008;12.106;2022-07-26T01:21:28;5.28;;;4.78;;
45905;SDS011;31619;49.008;12.106;2022-07-26T01:23:54;5.82;;;5.22;;
45905;SDS011;31619;49.008;12.106;2022-07-26T01:26:20;5.75;;;5.25;;
45905;SDS011;31619;49.008;12.106;2022-07-26T01:28:45;6.47;;;4.50;;
45905;SDS011;31619;49.008;12.106;2022-07-26T01:31:13;6.47;;;5.97;;
45905;SDS011;31619;49.008;12.106;2022-07-26T01:33:40;5.55;;;5.03;;
45905;SDS011;31619;49.008;12.106;2022-07-26T01:36:06;7.72;;;4.50;;
45905;SDS011;31619;49.008;12.106;2022-07-26T01:38:32;6.35;;;5.85;;
45905;SDS011;31619;49.008;12.106;2022-07-26T01:40:58;6.40;;;4.65;;
45905;SDS011;31619;49.008;12.106;2022-07-26T01:43:24;6.25;;;5.20;;
45905;SDS011;31619;49.008;12.106;2022-07-26T01:45:50;6.15;;;5.22;;
45905;SDS011;31619;49.008;12.106;2022-07-26T01:48:16;5.25;;;4.75;;
45905;SDS011;31619;49.008;12.106;2022-07-26T01:50:41;7.63;;;5.18;;
45905;SDS011;31619;49.008;12.106;2022-07-26T01:53:07;5.13;;;4.65;;
45905;SDS011;31619;49.008;12.106;2022-07-26T01:55:33;5.07;;;4.63;;
45905;SDS011;31619;49.008;12.106;2022-07-26T01:57:59;5.22;;;4.78;;
45905;SDS011;31619;49.008;12.106;2022-07-26T02:00:25;5.35;;;4.43;;
45905;SDS011;31619;49.008;12.106;2022-07-26T02:02:51;5.15;;;4.75;;
45905;SDS011;31619;49.008;12.106;2022-07-26T02:05:16;4.95;;;4.55;;
45905;SDS011;31619;49.008;12.106;2022-07-26T02:07:42;7.25;;;4.30;;
45905;SDS011;31619;49.008;12.106;2022-07-26T02:10:09;5.65;;;4.50;;
45905;SDS011;31619;49.008;12.106;2022-07-26T02:12:36;5.20;;;4.70;;
45905;SDS011;31619;49.008;12.106;2022-07-26T02:15:03;5.13;;;4.75;;
45905;SDS011;31619;49.008;12.106;2022-07-26T02:17:29;5.28;;;4.78;;
45905;SDS011;31619;49.008;12.106;2022-07-26T02:19:55;4.43;;;4.03;;
45905;SDS011;31619;49.008;12.106;2022-07-26T02:22:21;5.47;;;4.20;;
45905;SDS011;31619;49.008;12.106;2022-07-26T02:24:47;4.88;;;4.40;;
45905;SDS011;31619;49.008;12.106;2022-07-26T02:27:13;5.80;;;4.07;;
45905;SDS011;31619;49.008;12.106;2022-07-26T02:29:39;4.38;;;4.03;;
45905;SDS011;31619;49.008;12.106;2022-07-26T02:32:05;4.45;;;4.05;;
45905;SDS011;31619;49.008;12.106;2022-07-26T02:34:31;4.82;;;4.35;;
45905;SDS011;31619;49.008;12.106;2022-07-26T02:36:57;4.55;;;4.15;;
45905;SDS011;31619;49.008;12.106;2022-07-26T02:39:23;4.80;;;4.35;;
45905;SDS011;31619;49.008;12.106;2022-07-26T02:41:55;4.68;;;4.28;;
45905;SDS011;31619;49.008;12.106;2022-07-26T02:44:22;3.75;;;3.42;;
45905;SDS011;31619;49.008;12.106;2022-07-26T02:46:49;4.03;;;3.72;;
45905;SDS011;31619;49.008;12.106;2022-07-26T02:49:15;5.72;;;3.90;;
45905;SDS011;31619;49.008;12.106;2022-07-26T02:51:41;4.80;;;4.40;;
45905;SDS011;31619;49.008;12.106;2022-07-26T02:54:07;4.60;;;4.20;;
45905;SDS011;31619;49.008;12.106;2022-07-26T02:56:32;4.97;;;4.47;;
45905;SDS011;31619;49.008;12.106;2022-07-26T02:58:58;4.47;;;3.78;;
45905;SDS011;31619;49.008;12.106;2022-07-26T03:01:23;4.50;;;4.10;;
45905;SDS011;31619;49.008;12.106;2022-07-26T03:03:49;5.22;;;4.72;;
45905;SDS011;31619;49.008;12.106;2022-07-26T03:06:15;5.50;;;4.18;;
45905;SDS011;31619;49.008;12.106;2022-07-26T03:08:41;5.68;;;3.50;;
45905;SDS011;31619;49.008;12.106;2022-07-26T03:11:06;5.00;;;4.50;;
45905;SDS011;31619;49.008;12.106;2022-07-26T03:13:32;4.85;;;4.45;;
45905;SDS011;31619;49.008;12.106;2022-07-26T03:15:58;4.53;;;4.13;;
45905;SDS011;31619;49.008;12.106;2022-07-26T03:18:24;6.28;;;4.68;;
45905;SDS011;31619;49.008;12.106;2022-07-26T03:20:49;5.30;;;4.43;;
45905;SDS011;31619;49.008;12.106;2022-07-26T03:23:15;4.65;;;4.35;;
45905;SDS011;31619;49.008;12.106;2022-07-26T03:25:41;4.72;;;4.32;;
45905;SDS011;31619;49.008;12.106;2022-07-26T03:28:07;5.45;;;4.63;;
45905;SDS011;31619;49.008;12.106;2022-07-26T03:30:33;6.30;;;4.70;;
45905;SDS011;31619;49.008;12.106;2022-07-26T03:32:58;4.55;;;4.22;;
45905;SDS011;31619;49.008;12.106;2022-07-26T03:35:24;4.30;;;3.85;;
45905;SDS011;31619;49.008;12.106;2022-07-26T03:37:50;3.67;;;3.38;;
45905;SDS011;31619;49.008;12.106;2022-07-26T03:40:16;3.70;;;3.50;;
45905;SDS011;31619;49.008;12.106;2022-07-26T03:42:43;5.15;;;4.75;;
45905;SDS011;31619;49.008;12.106;2022-07-26T03:45:10;5.82;;;4.97;;
45905;SDS011;31619;49.008;12.106;2022-07-26T03:47:36;6.30;;;5.35;;
45905;SDS011;31619;49.008;12.106;2022-07-26T03:50:05;5.18;;;4.72;;
45905;SDS011;31619;49.008;12.106;2022-07-26T03:52:31;4.88;;;4.47;;
45905;SDS011;31619;49.008;12.106;2022-07-26T03:54:57;4.50;;;4.20;;
45905;SDS011;31619;49.008;12.106;2022-07-26T03:57:23;4.82;;;4.20;;
45905;SDS011;31619;49.008;12.106;2022-07-26T03:59:48;4.90;;;4.57;;
45905;SDS011;31619;49.008;12.106;2022-07-26T04:02:14;5.93;;;4.68;;
45905;SDS011;31619;49.008;12.106;2022-07-26T04:04:40;4.85;;;4.43;;
45905;SDS011;31619;49.008;12.106;2022-07-26T04:07:05;4.70;;;4.35;;
45905;SDS011;31619;49.008;12.106;2022-07-26T04:09:31;5.57;;;4.35;;
45905;SDS011;31619;49.008;12.106;2022-07-26T04:11:57;4.70;;;4.38;;
45905;SDS011;31619;49.008;12.106;2022-07-26T04:14:22;5.13;;;3.85;;
45905;SDS011;31619;49.008;12.106;2022-07-26T04:16:48;5.13;;;4.63;;
45905;SDS011;31619;49.008;12.106;2022-07-26T04:19:13;5.28;;;4.78;;
45905;SDS011;31619;49.008;12.106;2022-07-26T04:21:39;4.75;;;4.40;;
45905;SDS011;31619;49.008;12.106;2022-07-26T04:24:05;5.10;;;4.60;;
45905;SDS011;31619;49.008;12.106;2022-07-26T04:26:31;5.20;;;4.70;;
45905;SDS011;31619;49.008;12.106;2022-07-26T04:28:56;5.05;;;4.43;;
45905;SDS011;31619;49.008;12.106;2022-07-26T04:31:22;5.18;;;4.65;;
45905;SDS011;31619;49.008;12.106;2022-07-26T04:33:49;5.60;;;5.13;;
45905;SDS011;31619;49.008;12.106;2022-07-26T04:36:15;5.45;;;4.95;;
45905;SDS011;31619;49.008;12.106;2022-07-26T04:38:41;6.72;;;5.35;;
45905;SDS011;31619;49.008;12.106;2022-07-26T04:41:06;4.45;;;4.05;;
45905;SDS011;31619;49.008;12.106;2022-07-26T04:43:32;4.72;;;4.20;;
45905;SDS011;31619;49.008;12.106;2022-07-26T04:45:58;4.85;;;4.55;;
45905;SDS011;31619;49.008;12.106;2022-07-26T04:48:24;5.13;;;4.72;;
45905;SDS011;31619;49.008;12.106;2022-07-26T04:50:50;6.05;;;5.38;;
45905;SDS011;31619;49.008;12.106;2022-07-26T04:53:16;5.47;;;4.93;;
45905;SDS011;31619;49.008;12.106;2022-07-26T04:55:42;5.25;;;4.80;;
45905;SDS011;31619;49.008;12.106;2022-07-26T04:58:08;6.68;;;4.95;;
45905;SDS011;31619;49.008;12.106;2022-07-26T05:00:34;8.52;;;5.95;;
45905;SDS011;31619;49.008;12.106;2022-07-26T05:03:00;5.75;;;5.20;;
45905;SDS011;31619;49.008;12.106;2022-07-26T05:05:27;5.57;;;5.07;;
45905;SDS011;31619;49.008;12.106;2022-07-26T05:07:55;7.03;;;5.10;;
45905;SDS011;31619;49.008;12.106;2022-07-26T05:10:21;6.68;;;5.07;;
45905;SDS011;31619;49.008;12.106;2022-07-26T05:12:59;5.35;;;4.95;;
45905;SDS011;31619;49.008;12.106;2022-07-26T05:15:27;6.88;;;5.75;;
45905;SDS011;31619;49.008;12.106;2022-07-26T05:17:54;5.32;;;4.82;;
45905;SDS011;31619;49.008;12.106;2022-07-26T05:20:21;6.20;;;5.60;;
45905;SDS011;31619;49.008;12.106;2022-07-26T05:22:47;5.53;;;4.88;;
45905;SDS011;31619;49.008;12.106;2022-07-26T05:25:13;6.15;;;5.50;;
45905;SDS011;31619;49.008;12.106;2022-07-26T05:27:38;7.38;;;5.32;;
45905;SDS011;31619;49.008;12.106;2022-07-26T05:30:05;5.32;;;4.85;;
45905;SDS011;31619;49.008;12.106;2022-07-26T05:32:32;5.97;;;5.43;;
45905;SDS011;31619;49.008;12.106;2022-07-26T05:34:57;6.38;;;5.75;;
45905;SDS011;31619;49.008;12.106;2022-07-26T05:37:23;6.50;;;5.88;;
45905;SDS011;31619;49.008;12.106;2022-07-26T05:39:49;5.97;;;5.47;;
45905;SDS011;31619;49.008;12.106;2022-07-26T05:42:14;5.78;;;5.28;;
45905;SDS011;31619;49.008;12.106;2022-07-26T05:44:40;6.05;;;5.55;;
45905;SDS011;31619;49.008;12.106;2022-07-26T05:47:06;5.90;;;5.45;;
45905;SDS011;31619;49.008;12.106;2022-07-26T05:49:31;6.43;;;5.40;;
45905;SDS011;31619;49.008;12.106;2022-07-26T05:51:57;6.32;;;5.82;;
45905;SDS011;31619;49.008;12.106;2022-07-26T05:54:23;7.20;;;5.57;;
45905;SDS011;31619;49.008;12.106;2022-07-26T05:56:48;14.82;;;6.63;;
45905;SDS011;31619;49.008;12.106;2022-07-26T05:59:14;8.20;;;5.88;;
45905;SDS011;31619;49.008;12.106;2022-07-26T06:01:40;6.95;;;6.25;;
45905;SDS011;31619;49.008;12.106;2022-07-26T06:04:05;6.97;;;6.10;;
45905;SDS011;31619;49.008;12.106;2022-07-26T06:06:32;6.25;;;5.75;;
45905;SDS011;31619;49.008;12.106;2022-07-26T06:08:58;5.88;;;5.38;;
45905;SDS011;31619;49.008;12.106;2022-07-26T06:11:24;7.60;;;5.75;;
45905;SDS011;31619;49.008;12.106;2022-07-26T06:13:49;5.97;;;5.35;;
45905;SDS011;31619;49.008;12.106;2022-07-26T06:16:15;7.90;;;5.30;;
45905;SDS011;31619;49.008;12.106;2022-07-26T06:18:41;6.45;;;5.65;;
45905;SDS011;31619;49.008;12.106;2022-07-26T06:21:07;6.18;;;5.50;;
45905;SDS011;31619;49.008;12.106;2022-07-26T06:23:33;15.13;;;6.00;;
45905;SDS011;31619;49.008;12.106;2022-07-26T06:25:58;6.13;;;4.65;;
45905;SDS011;31619;49.008;12.106;2022-07-26T06:28:24;5.05;;;4.57;;
45905;SDS011;31619;49.008;12.106;2022-07-26T06:30:49;7.65;;;5.22;;
45905;SDS011;31619;49.008;12.106;2022-07-26T06:33:15;6.25;;;4.70;;
45905;SDS011;31619;49.008;12.106;2022-07-26T06:35:41;5.38;;;4.82;;
45905;SDS011;31619;49.008;12.106;2022-07-26T06:38:07;4.75;;;4.35;;
45905;SDS011;31619;49.008;12.106;2022-07-26T06:40:33;5.22;;;4.72;;
45905;SDS011;31619;49.008;12.106;2022-07-26T06:42:59;4.60;;;4.18;;
45905;SDS011;31619;49.008;12.106;2022-07-26T06:45:25;4.40;;;4.00;;
45905;SDS011;31619;49.008;12.106;2022-07-26T06:47:52;4.10;;;3.70;;
45905;SDS011;31619;49.008;12.106;2022-07-26T06:50:17;5.18;;;3.30;;
45905;SDS011;31619;49.008;12.106;2022-07-26T06:52:43;4.32;;;3.88;;
45905;SDS011;31619;49.008;12.106;2022-07-26T06:55:08;3.50;;;3.17;;
45905;SDS011;31619;49.008;12.106;2022-07-26T06:57:35;5.00;;;3.30;;
45905;SDS011;31619;49.008;12.106;2022-07-26T07:00:01;3.53;;;2.47;;
45905;SDS011;31619;49.008;12.106;2022-07-26T07:02:31;2.85;;;2.65;;
45905;SDS011;31619;49.008;12.106;2022-07-26T07:04:56;7.15;;;3.08;;
45905;SDS011;31619;49.008;12.106;2022-07-26T07:07:22;5.82;;;2.75;;
45905;SDS011;31619;49.008;12.106;2022-07-26T07:09:48;4.85;;;3.10;;
45905;SDS011;31619;49.008;12.106;2022-07-26T07:12:13;3.92;;;2.67;;
45905;SDS011;31619;49.008;12.106;2022-07-26T07:14:39;2.72;;;2.50;;
45905;SDS011;31619;49.008;12.106;2022-07-26T07:17:05;3.53;;;2.67;;
45905;SDS011;31619;49.008;12.106;2022-07-26T07:19:34;4.25;;;3.00;;
45905;SDS011;31619;49.008;12.106;2022-07-26T07:22:00;3.33;;;2.60;;
45905;SDS011;31619;49.008;12.106;2022-07-26T07:24:27;4.13;;;2.58;;
45905;SDS011;31619;49.008;12.106;2022-07-26T07:26:53;2.70;;;2.60;;
45905;SDS011;31619;49.008;12.106;2022-07-26T07:29:18;4.25;;;2.80;;
45905;SDS011;31619;49.008;12.106;2022-07-26T07:31:45;2.85;;;2.65;;
45905;SDS011;31619;49.008;12.106;2022-07-26T07:34:12;3.05;;;2.60;;
45905;SDS011;31619;49.008;12.106;2022-07-26T07:36:38;3.30;;;2.72;;
45905;SDS011;31619;49.008;12.106;2022-07-26T07:39:04;2.60;;;2.40;;
45905;SDS011;31619;49.008;12.106;2022-07-26T07:41:29;4.88;;;2.72;;
45905;SDS011;31619;49.008;12.106;2022-07-26T07:43:58;5.72;;;2.67;;
45905;SDS011;31619;49.008;12.106;2022-07-26T07:46:24;5.18;;;2.80;;
45905;SDS011;31619;49.008;12.106;2022-07-26T07:48:50;2.75;;;2.55;;
45905;SDS011;31619;49.008;12.106;2022-07-26T07:51:15;2.47;;;2.25;;
45905;SDS011;31619;49.008;12.106;2022-07-26T07:53:41;2.85;;;2.30;;
45905;SDS011;31619;49.008;12.106;2022-07-26T07:56:07;2.38;;;2.17;;
45905;SDS011;31619;49.008;12.106;2022-07-26T07:58:32;4.38;;;2.20;;
45905;SDS011;31619;49.008;12.106;2022-07-26T08:00:58;3.35;;;2.33;;
45905;SDS011;31619;49.008;12.106;2022-07-26T08:03:24;2.22;;;2.03;;
45905;SDS011;31619;49.008;12.106;2022-07-26T08:05:49;3.88;;;2.10;;
45905;SDS011;31619;49.008;12.106;2022-07-26T08:08:15;3.40;;;1.98;;
45905;SDS011;31619;49.008;12.106;2022-07-26T08:10:40;3.40;;;2.47;;
45905;SDS011;31619;49.008;12.106;2022-07-26T08:13:06;4.28;;;1.92;;
45905;SDS011;31619;49.008;12.106;2022-07-26T08:15:32;4.18;;;2.30;;
45905;SDS011;31619;49.008;12.106;2022-07-26T08:17:58;2.33;;;2.13;;
45905;SDS011;31619;49.008;12.106;2022-07-26T08:20:23;2.42;;;2.22;;
45905;SDS011;31619;49.008;12.106;2022-07-26T08:22:49;6.10;;;2.58;;
45905;SDS011;31619;49.008;12.106;2022-07-26T08:25:14;2.40;;;2.20;;
45905;SDS011;31619;49.008;12.106;2022-07-26T08:27:40;3.15;;;2.47;;
45905;SDS011;31619;49.008;12.106;2022-07-26T08:30:06;2.42;;;2.10;;
45905;SDS011;31619;49.008;12.106;2022-07-26T08:32:32;2.65;;;2.40;;
45905;SDS011;31619;49.008;12.106;2022-07-26T08:34:58;3.13;;;2.53;;
45905;SDS011;31619;49.008;12.106;2022-07-26T08:37:23;2.13;;;2.00;;
45905;SDS011;31619;49.008;12.106;2022-07-26T08:39:49;3.45;;;2.35;;
45905;SDS011;31619;49.008;12.106;2022-07-26T08:42:16;2.92;;;2.30;;
45905;SDS011;31619;49.008;12.106;2022-07-26T08:44:44;4.35;;;2.90;;
45905;SDS011;31619;49.008;12.106;2022-07-26T08:47:11;2.65;;;2.47;;
45905;SDS011;31619;49.008;12.106;2022-07-26T08:49:38;2.72;;;2.50;;
45905;SDS011;31619;49.008;12.106;2022-07-26T08:52:05;2.38;;;1.88;;
45905;SDS011;31619;49.008;12.106;2022-07-26T08:54:31;5.40;;;1.92;;
45905;SDS011;31619;49.008;12.106;2022-07-26T08:56:57;6.75;;;2.00;;
45905;SDS011;31619;49.008;12.106;2022-07-26T08:59:23;8.23;;;1.92;;
45905;SDS011;31619;49.008;12.106;2022-07-26T09:04:16;7.03;;;2.05;;
45905;SDS011;31619;49.008;12.106;2022-07-26T09:09:34;2.10;;;2.00;;
45905;SDS011;31619;49.008;12.106;2022-07-26T09:12:14;2.15;;;2.05;;
45905;SDS011;31619;49.008;12.106;2022-07-26T09:14:44;5.35;;;2.25;;
45905;SDS011;31619;49.008;12.106;2022-07-26T09:17:11;3.13;;;2.22;;
45905;SDS011;31619;49.008;12.106;2022-07-26T09:19:38;2.22;;;2.03;;
45905;SDS011;31619;49.008;12.106;2022-07-26T09:22:08;3.20;;;2.25;;
45905;SDS011;31619;49.008;12.106;2022-07-26T09:24:40;2.08;;;1.88;;
45905;SDS011;31619;49.008;12.106;2022-07-26T09:27:11;2.20;;;2.10;;
45905;SDS011;31619;49.008;12.106;2022-07-26T09:32:11;2.00;;;1.88;;
45905;SDS011;31619;49.008;12.106;2022-07-26T09:34:44;1.90;;;1.80;;
45905;SDS011;31619;49.008;12.106;2022-07-26T09:37:15;1.65;;;1.55;;
45905;SDS011;31619;49.008;12.106;2022-07-26T09:39:54;2.00;;;1.90;;
45905;SDS011;31619;49.008;12.106;2022-07-26T09:42:21;2.28;;;1.70;;
45905;SDS011;31619;49.008;12.106;2022-07-26T09:44:48;2.28;;;1.60;;
45905;SDS011;31619;49.008;12.106;2022-07-26T09:47:14;2.58;;;1.70;;
45905;SDS011;31619;49.008;12.106;2022-07-26T09:49:40;1.75;;;1.33;;
45905;SDS011;31619;49.008;12.106;2022-07-26T09:52:19;2.10;;;1.40;;
45905;SDS011;31619;49.008;12.106;2022-07-26T09:54:46;3.65;;;1.63;;
45905;SDS011;31619;49.008;12.106;2022-07-26T09:57:17;2.50;;;1.55;;
45905;SDS011;31619;49.008;12.106;2022-07-26T09:59:44;1.85;;;1.65;;
45905;SDS011;31619;49.008;12.106;2022-07-26T10:02:10;1.40;;;1.30;;
45905;SDS011;31619;49.008;12.106;2022-07-26T10:04:38;4.90;;;1.50;;
45905;SDS011;31619;49.008;12.106;2022-07-26T10:07:07;1.40;;;1.30;;
45905;SDS011;31619;49.008;12.106;2022-07-26T10:12:35;1.33;;;1.08;;
45905;SDS011;31619;49.008;12.106;2022-07-26T10:15:01;1.58;;;1.48;;
45905;SDS011;31619;49.008;12.106;2022-07-26T10:19:53;1.33;;;1.23;;
45905;SDS011;31619;49.008;12.106;2022-07-26T10:24:54;2.78;;;1.63;;
45905;SDS011;31619;49.008;12.106;2022-07-26T10:27:37;3.13;;;1.45;;
45905;SDS011;31619;49.008;12.106;2022-07-26T10:35:39;2.38;;;0.95;;
45905;SDS011;31619;49.008;12.106;2022-07-26T10:40:34;2.15;;;1.23;;
45905;SDS011;31619;49.008;12.106;2022-07-26T10:43:20;1.67;;;1.55;;
45905;SDS011;31619;49.008;12.106;2022-07-26T10:45:45;1.50;;;1.40;;
45905;SDS011;31619;49.008;12.106;2022-07-26T10:48:18;1.75;;;1.45;;
45905;SDS011;31619;49.008;12.106;2022-07-26T10:50:48;2.08;;;1.60;;
45905;SDS011;31619;49.008;12.106;2022-07-26T10:53:23;1.30;;;1.30;;
45905;SDS011;31619;49.008;12.106;2022-07-26T10:55:51;2.10;;;1.65;;
45905;SDS011;31619;49.008;12.106;2022-07-26T10:58:19;2.83;;;1.60;;
45905;SDS011;31619;49.008;12.106;2022-07-26T11:00:57;1.95;;;1.70;;
45905;SDS011;31619;49.008;12.106;2022-07-26T11:03:23;6.85;;;1.88;;
45905;SDS011;31619;49.008;12.106;2022-07-26T11:05:49;1.35;;;1.25;;
45905;SDS011;31619;49.008;12.106;2022-07-26T11:08:15;1.50;;;1.40;;
45905;SDS011;31619;49.008;12.106;2022-07-26T11:10:42;1.40;;;1.30;;
45905;SDS011;31619;49.008;12.106;2022-07-26T11:13:13;2.15;;;1.38;;
45905;SDS011;31619;49.008;12.106;2022-07-26T11:15:41;2.75;;;1.70;;
45905;SDS011;31619;49.008;12.106;2022-07-26T11:18:10;1.73;;;1.63;;
45905;SDS011;31619;49.008;12.106;2022-07-26T11:20:38;1.13;;;1.13;;
45905;SDS011;31619;49.008;12.106;2022-07-26T11:23:17;1.40;;;1.30;;
45905;SDS011;31619;49.008;12.106;2022-07-26T11:26:13;2.05;;;1.75;;
45905;SDS011;31619;49.008;12.106;2022-07-26T11:28:41;2.92;;;1.65;;
45905;SDS011;31619;49.008;12.106;2022-07-26T11:34:02;1.77;;;1.67;;
45905;SDS011;31619;49.008;12.106;2022-07-26T11:36:32;1.40;;;1.30;;
45905;SDS011;31619;49.008;12.106;2022-07-26T11:39:02;3.13;;;1.40;;
45905;SDS011;31619;49.008;12.106;2022-07-26T11:41:29;1.40;;;1.17;;
45905;SDS011;31619;49.008;12.106;2022-07-26T11:43:56;1.50;;;1.40;;
45905;SDS011;31619;49.008;12.106;2022-07-26T11:46:22;1.70;;;1.60;;
45905;SDS011;31619;49.008;12.106;2022-07-26T11:48:57;1.45;;;1.35;;
45905;SDS011;31619;49.008;12.106;2022-07-26T11:51:23;3.83;;;1.50;;
45905;SDS011;31619;49.008;12.106;2022-07-26T11:53:49;1.40;;;1.40;;
45905;SDS011;31619;49.008;12.106;2022-07-26T11:56:23;1.63;;;1.52;;
45905;SDS011;31619;49.008;12.106;2022-07-26T11:58:50;1.60;;;1.50;;
45905;SDS011;31619;49.008;12.106;2022-07-26T12:01:18;1.67;;;1.33;;
45905;SDS011;31619;49.008;12.106;2022-07-26T12:03:45;1.52;;;1.42;;
45905;SDS011;31619;49.008;12.106;2022-07-26T12:06:14;1.95;;;1.50;;
45905;SDS011;31619;49.008;12.106;2022-07-26T12:08:43;1.70;;;1.60;;
45905;SDS011;31619;49.008;12.106;2022-07-26T12:11:10;1.30;;;1.30;;
45905;SDS011;31619;49.008;12.106;2022-07-26T12:13:50;1.25;;;1.25;;
45905;SDS011;31619;49.008;12.106;2022-07-26T12:19:09;1.60;;;1.50;;
45905;SDS011;31619;49.008;12.106;2022-07-26T12:24:08;2.20;;;1.27;;
45905;SDS011;31619;49.008;12.106;2022-07-26T12:26:35;1.80;;;1.20;;
45905;SDS011;31619;49.008;12.106;2022-07-26T12:29:01;1.20;;;1.20;;
45905;SDS011;31619;49.008;12.106;2022-07-26T12:32:04;2.20;;;1.25;;
45905;SDS011;31619;49.008;12.106;2022-07-26T12:34:32;1.88;;;1.45;;
45905;SDS011;31619;49.008;12.106;2022-07-26T12:37:06;1.40;;;1.35;;
45905;SDS011;31619;49.008;12.106;2022-07-26T12:39:42;3.55;;;1.30;;
45905;SDS011;31619;49.008;12.106;2022-07-26T12:42:26;2.08;;;1.40;;
45905;SDS011;31619;49.008;12.106;2022-07-26T12:44:53;2.28;;;1.48;;
45905;SDS011;31619;49.008;12.106;2022-07-26T12:47:19;2.17;;;1.30;;
45905;SDS011;31619;49.008;12.106;2022-07-26T12:49:45;1.38;;;1.38;;
45905;SDS011;31619;49.008;12.106;2022-07-26T12:52:12;3.90;;;1.60;;
45905;SDS011;31619;49.008;12.106;2022-07-26T12:54:39;2.33;;;1.50;;
45905;SDS011;31619;49.008;12.106;2022-07-26T12:57:05;2.33;;;1.50;;
45905;SDS011;31619;49.008;12.106;2022-07-26T12:59:30;2.97;;;1.38;;
45905;SDS011;31619;49.008;12.106;2022-07-26T13:01:56;1.48;;;1.38;;
45905;SDS011;31619;49.008;12.106;2022-07-26T13:04:21;1.70;;;1.20;;
45905;SDS011;31619;49.008;12.106;2022-07-26T13:06:47;3.35;;;1.30;;
45905;SDS011;31619;49.008;12.106;2022-07-26T13:09:13;1.23;;;1.20;;
45905;SDS011;31619;49.008;12.106;2022-07-26T13:11:38;1.52;;;1.27;;
45905;SDS011;31619;49.008;12.106;2022-07-26T13:14:04;1.90;;;1.50;;
45905;SDS011;31619;49.008;12.106;2022-07-26T13:16:29;1.27;;;1.17;;
45905;SDS011;31619;49.008;12.106;2022-07-26T13:18:55;1.70;;;1.50;;
45905;SDS011;31619;49.008;12.106;2022-07-26T13:21:21;2.13;;;1.75;;
45905;SDS011;31619;49.008;12.106;2022-07-26T13:23:46;2.30;;;1.40;;
45905;SDS011;31619;49.008;12.106;2022-07-26T13:26:12;1.08;;;1.08;;
45905;SDS011;31619;49.008;12.106;2022-07-26T13:28:38;1.65;;;1.38;;
45905;SDS011;31619;49.008;12.106;2022-07-26T13:31:04;2.20;;;1.30;;
45905;SDS011;31619;49.008;12.106;2022-07-26T13:33:33;2.55;;;1.60;;
45905;SDS011;31619;49.008;12.106;2022-07-26T13:35:59;1.35;;;1.15;;
45905;SDS011;31619;49.008;12.106;2022-07-26T13:38:24;1.30;;;1.20;;
45905;SDS011;31619;49.008;12.106;2022-07-26T13:40:51;2.28;;;1.27;;
45905;SDS011;31619;49.008;12.106;2022-07-26T13:43:17;1.75;;;1.30;;
45905;SDS011;31619;49.008;12.106;2022-07-26T13:45:43;1.67;;;1.40;;
45905;SDS011;31619;49.008;12.106;2022-07-26T13:48:08;1.85;;;1.00;;
45905;SDS011;31619;49.008;12.106;2022-07-26T13:50:34;4.05;;;1.42;;
45905;SDS011;31619;49.008;12.106;2022-07-26T13:53:01;1.35;;;1.25;;
45905;SDS011;31619;49.008;12.106;2022-07-26T13:55:26;1.35;;;1.25;;
45905;SDS011;31619;49.008;12.106;2022-07-26T13:57:52;2.13;;;1.20;;
45905;SDS011;31619;49.008;12.106;2022-07-26T14:00:17;1.38;;;1.27;;
45905;SDS011;31619;49.008;12.106;2022-07-26T14:02:43;1.15;;;1.05;;
45905;SDS011;31619;49.008;12.106;2022-07-26T14:05:09;2.38;;;1.10;;
45905;SDS011;31619;49.008;12.106;2022-07-26T14:07:34;3.15;;;1.27;;
45905;SDS011;31619;49.008;12.106;2022-07-26T14:10:00;2.00;;;1.15;;
45905;SDS011;31619;49.008;12.106;2022-07-26T14:12:26;1.27;;;1.20;;
45905;SDS011;31619;49.008;12.106;2022-07-26T14:14:51;1.27;;;1.05;;
45905;SDS011;31619;49.008;12.106;2022-07-26T14:17:17;1.02;;;1.00;;
45905;SDS011;31619;49.008;12.106;2022-07-26T14:19:42;2.50;;;1.27;;
45905;SDS011;31619;49.008;12.106;2022-07-26T14:22:08;1.67;;;1.02;;
45905;SDS011;31619;49.008;12.106;2022-07-26T14:24:34;1.33;;;1.02;;
45905;SDS011;31619;49.008;12.106;2022-07-26T14:26:59;1.77;;;0.98;;
45905;SDS011;31619;49.008;12.106;2022-07-26T14:29:25;1.42;;;1.10;;
45905;SDS011;31619;49.008;12.106;2022-07-26T14:31:51;1.85;;;1.13;;
45905;SDS011;31619;49.008;12.106;2022-07-26T14:34:17;1.38;;;1.30;;
45905;SDS011;31619;49.008;12.106;2022-07-26T14:36:43;1.08;;;0.88;;
45905;SDS011;31619;49.008;12.106;2022-07-26T14:39:08;1.85;;;0.85;;
45905;SDS011;31619;49.008;12.106;2022-07-26T14:41:34;1.60;;;1.00;;
45905;SDS011;31619;49.008;12.106;2022-07-26T14:44:00;1.38;;;1.27;;
45905;SDS011;31619;49.008;12.106;2022-07-26T14:46:26;1.10;;;0.98;;
45905;SDS011;31619;49.008;12.106;2022-07-26T14:48:52;1.00;;;1.00;;
45905;SDS011;31619;49.008;12.106;2022-07-26T14:51:18;0.80;;;0.80;;
45905;SDS011;31619;49.008;12.106;2022-07-26T14:53:44;5.47;;;1.23;;
45905;SDS011;31619;49.008;12.106;2022-07-26T14:56:09;0.77;;;0.75;;
45905;SDS011;31619;49.008;12.106;2022-07-26T14:58:36;1.02;;;1.00;;
45905;SDS011;31619;49.008;12.106;2022-07-26T15:01:02;2.22;;;2.00;;
45905;SDS011;31619;49.008;12.106;2022-07-26T15:03:28;1.17;;;1.08;;